EGHH

Bournemouth Airport

Bournemouth, United Kingdom
TAF EGHH 200755Z 2009/2018 03006KT 9999 SCT030 PROB30 TEMPO 2009/2018 9000 BKN014
Issued Valid From Valid To
Jan-20 @ 07:55 UTC
(3 hours ago)
Jan-20 @ 09:00 UTC
(2 hours ago)
Jan-20 @ 18:00 UTC
(in 7 hours)
Jan-20 @ 09:00 to Jan-20 @ 18:00
TAF EGHH 200755Z 2009/2018 03006KT 9999 SCT030
Wind Visibility Clouds
30° at 6 knots 10,000+ meters
  • Scattered at 3,000' AGL
Temporary  (Probability 30%) Jan-20 @ 09:00 to Jan-20 @ 18:00
PROB30 TEMPO 2009/2018 9000 BKN014
Visibility Clouds
8,996 meters
  • Broken at 1,400' AGL
TAF EGHH 200755Z 2009/2018 03006KT 9999 SCT030 PROB30 TEMPO 2009/2018 9000 BKN014
Issued Jan-20 @ 07:55 UTC
(3 hours ago)
Valid From Jan-20 @ 09:00 UTC
(2 hours ago)
Valid To Jan-20 @ 18:00 UTC
(in 7 hours)
Jan-20 @ 09:00 - Jan-20 @ 18:00
Wind Visibility
30° at 6 knots 10,000+ meters
Clouds
  • Scattered at 3,000' AGL
Probability 30% Temporary Jan-20 @ 09:00 - Jan-20 @ 18:00
Clouds
  • Broken at 1,400' AGL